Time;durP1;ratioP1;P1;durP2;ratioP2;P2;SDS_P1;SDS_P2;PMS_P1;PMS_P2;Temp;Humidity;BMP_temperature;BMP_pressure;BME280_temperature;BME280_humidity;BME280_pressure;Samples;Min_cycle;Max_cycle;Signal;HPM_P1;HPM_P2
2022/02/19 00:02:16;;;;;;;5.78;0.93;;;;;;;;;;5081699;28;20113;-50
2022/02/19 00:04:42;;;;;;;4.18;0.73;;;;;;;;;;5079192;28;20287;-51
2022/02/19 00:07:07;;;;;;;8.00;1.83;;;;;;;;;;5087845;28;20027;-50
2022/02/19 00:09:33;;;;;;;5.05;1.23;;;;;;;;;;5087892;28;20042;-50
2022/02/19 00:11:59;;;;;;;4.75;1.13;;;;;;;;;;5084374;28;20036;-51
2022/02/19 00:14:24;;;;;;;4.85;1.38;;;;;;;;;;5085358;28;20119;-50
2022/02/19 00:16:50;;;;;;;3.60;0.90;;;;;;;;;;5082382;28;20036;-49
2022/02/19 00:19:15;;;;;;;7.65;1.05;;;;;;;;;;5068528;28;20032;-52
2022/02/19 00:21:41;;;;;;;3.50;0.98;;;;;;;;;;5084616;28;20118;-52
2022/02/19 00:24:07;;;;;;;5.38;0.65;;;;;;;;;;5079744;28;20039;-52
2022/02/19 00:26:33;;;;;;;4.28;0.90;;;;;;;;;;5083058;28;20287;-53
2022/02/19 00:28:58;;;;;;;4.57;1.00;;;;;;;;;;5083436;28;20028;-54
2022/02/19 00:31:24;;;;;;;7.90;1.08;;;;;;;;;;5082492;28;20032;-55
2022/02/19 00:33:49;;;;;;;4.75;0.98;;;;;;;;;;5089192;28;20036;-54
2022/02/19 00:36:15;;;;;;;6.53;1.02;;;;;;;;;;5089039;28;20025;-55
2022/02/19 00:38:40;;;;;;;4.22;0.65;;;;;;;;;;5079261;28;20486;-52
2022/02/19 00:41:06;;;;;;;2.38;0.70;;;;;;;;;;5084953;28;20123;-50
2022/02/19 00:43:31;;;;;;;6.88;1.25;;;;;;;;;;5080481;28;20071;-51
2022/02/19 00:45:57;;;;;;;3.42;1.20;;;;;;;;;;5087851;28;20491;-50
2022/02/19 00:48:23;;;;;;;4.10;0.85;;;;;;;;;;5084652;28;20380;-49
2022/02/19 00:50:49;;;;;;;7.07;0.43;;;;;;;;;;5079996;28;20531;-50
2022/02/19 00:53:15;;;;;;;4.55;0.77;;;;;;;;;;5079752;28;20040;-50
2022/02/19 00:55:41;;;;;;;3.42;0.55;;;;;;;;;;5081791;28;20031;-54
2022/02/19 00:58:07;;;;;;;2.60;0.85;;;;;;;;;;5078190;28;20040;-52
2022/02/19 01:00:34;;;;;;;2.95;0.85;;;;;;;;;;5070358;27;20495;-52
2022/02/19 01:02:59;;;;;;;1.67;0.90;;;;;;;;;;5025516;28;20518;-52
2022/02/19 01:05:25;;;;;;;5.97;1.05;;;;;;;;;;5021228;28;20056;-50
2022/02/19 01:07:51;;;;;;;0.40;0.30;;;;;;;;;;5025013;28;20036;-50
2022/02/19 01:10:17;;;;;;;2.97;0.70;;;;;;;;;;5025036;28;20041;-50
2022/02/19 01:12:42;;;;;;;4.32;0.95;;;;;;;;;;5019250;28;20021;-56
2022/02/19 01:15:11;;;;;;;3.47;0.70;;;;;;;;;;5028451;28;20115;-50
2022/02/19 01:17:36;;;;;;;4.60;0.93;;;;;;;;;;5028187;28;20167;-53
2022/02/19 01:20:02;;;;;;;3.80;1.00;;;;;;;;;;5016716;28;20132;-55
2022/02/19 01:22:28;;;;;;;4.00;0.80;;;;;;;;;;5023494;28;20033;-57
2022/02/19 01:24:54;;;;;;;4.82;0.90;;;;;;;;;;5025604;28;20079;-56
2022/02/19 01:27:19;;;;;;;8.40;0.65;;;;;;;;;;5023106;28;20025;-54
2022/02/19 01:29:44;;;;;;;2.90;0.75;;;;;;;;;;5026434;28;20029;-53
2022/02/19 01:32:10;;;;;;;4.70;0.57;;;;;;;;;;5028859;28;20037;-56
2022/02/19 01:34:35;;;;;;;5.90;0.82;;;;;;;;;;5028537;28;20640;-54
2022/02/19 01:37:01;;;;;;;1.92;0.68;;;;;;;;;;5024445;28;20040;-50
2022/02/19 01:39:29;;;;;;;2.75;0.60;;;;;;;;;;5026456;28;20033;-50
2022/02/19 01:41:55;;;;;;;5.28;1.08;;;;;;;;;;5023836;28;20095;-49
2022/02/19 01:44:20;;;;;;;8.57;1.48;;;;;;;;;;5027898;28;20379;-50
2022/02/19 01:46:46;;;;;;;6.45;0.70;;;;;;;;;;5027421;28;20458;-51
2022/02/19 01:49:11;;;;;;;5.57;0.85;;;;;;;;;;5024153;28;20133;-52
2022/02/19 01:51:38;;;;;;;6.88;1.13;;;;;;;;;;5024553;28;20068;-52
2022/02/19 01:54:08;;;;;;;8.80;1.50;;;;;;;;;;5022475;28;20133;-54
2022/02/19 01:56:35;;;;;;;4.63;1.23;;;;;;;;;;5025101;28;20032;-49
2022/02/19 01:59:04;;;;;;;3.75;1.27;;;;;;;;;;5022465;28;20471;-51
2022/02/19 02:01:30;;;;;;;10.93;1.27;;;;;;;;;;5024660;28;20048;-51
2022/02/19 02:03:55;;;;;;;6.25;1.67;;;;;;;;;;5024937;28;20037;-55
2022/02/19 02:06:24;;;;;;;15.50;1.73;;;;;;;;;;5026477;28;20080;-50
2022/02/19 02:08:50;;;;;;;11.25;1.45;;;;;;;;;;5022420;28;20068;-51
2022/02/19 02:11:16;;;;;;;9.27;1.80;;;;;;;;;;5023252;28;20388;-51
2022/02/19 02:13:42;;;;;;;3.67;0.88;;;;;;;;;;5023447;28;20037;-49
2022/02/19 02:16:08;;;;;;;6.88;1.50;;;;;;;;;;5023175;28;20193;-49
2022/02/19 02:18:33;;;;;;;5.03;1.45;;;;;;;;;;5022758;28;20128;-52
2022/02/19 02:20:59;;;;;;;9.50;1.30;;;;;;;;;;5025368;28;20061;-52
2022/02/19 02:23:24;;;;;;;6.28;1.15;;;;;;;;;;5020927;28;20289;-53
2022/02/19 02:25:52;;;;;;;8.35;1.48;;;;;;;;;;5024222;28;20103;-53
2022/02/19 02:28:19;;;;;;;4.90;1.00;;;;;;;;;;5022804;28;20031;-56
2022/02/19 02:30:45;;;;;;;8.55;1.90;;;;;;;;;;5023390;28;20029;-54
2022/02/19 02:33:13;;;;;;;11.32;1.73;;;;;;;;;;5020709;28;20558;-54
2022/02/19 02:35:38;;;;;;;5.65;0.90;;;;;;;;;;5029974;28;20137;-50
2022/02/19 02:38:04;;;;;;;8.43;2.10;;;;;;;;;;5023613;28;20112;-52
2022/02/19 02:40:34;;;;;;;6.82;1.45;;;;;;;;;;5024804;28;20492;-51
2022/02/19 02:42:59;;;;;;;5.50;1.15;;;;;;;;;;5021315;28;20476;-55
2022/02/19 02:45:25;;;;;;;9.00;1.15;;;;;;;;;;5026831;28;20026;-50
2022/02/19 02:47:51;;;;;;;12.85;2.38;;;;;;;;;;5021226;28;20037;-52
2022/02/19 02:50:16;;;;;;;12.65;2.22;;;;;;;;;;5026726;28;20033;-55
2022/02/19 02:52:42;;;;;;;2.47;1.02;;;;;;;;;;5022253;28;20076;-53
2022/02/19 02:55:09;;;;;;;4.03;1.55;;;;;;;;;;5021123;28;20037;-54
2022/02/19 02:57:35;;;;;;;9.43;1.27;;;;;;;;;;5023984;28;20483;-50
2022/02/19 03:00:03;;;;;;;8.68;1.40;;;;;;;;;;5023964;28;20055;-53
2022/02/19 03:02:29;;;;;;;10.93;1.98;;;;;;;;;;5026032;28;20026;-51
2022/02/19 03:04:56;;;;;;;6.68;1.10;;;;;;;;;;5026789;28;20036;-51
2022/02/19 03:07:23;;;;;;;8.32;1.60;;;;;;;;;;5026747;28;20021;-53
2022/02/19 03:09:48;;;;;;;6.22;1.02;;;;;;;;;;5028235;28;20045;-52
2022/02/19 03:12:14;;;;;;;6.85;1.55;;;;;;;;;;5024846;28;21268;-50
2022/02/19 03:14:39;;;;;;;8.60;1.80;;;;;;;;;;5027081;28;20052;-52
2022/02/19 03:17:05;;;;;;;10.90;1.48;;;;;;;;;;5027176;28;20033;-55
2022/02/19 03:19:31;;;;;;;7.63;1.10;;;;;;;;;;5025077;28;20467;-56
2022/02/19 03:21:56;;;;;;;3.35;1.00;;;;;;;;;;5025105;28;20033;-55
2022/02/19 03:24:22;;;;;;;5.43;1.02;;;;;;;;;;5025751;28;20406;-52
2022/02/19 03:26:48;;;;;;;4.60;1.27;;;;;;;;;;5030133;28;20484;-53
2022/02/19 03:29:13;;;;;;;11.52;1.40;;;;;;;;;;5026422;28;20476;-53
2022/02/19 03:31:39;;;;;;;7.32;1.05;;;;;;;;;;5022293;28;20025;-51
2022/02/19 03:34:04;;;;;;;4.05;1.15;;;;;;;;;;5039327;28;20106;-51
2022/02/19 03:36:30;;;;;;;6.60;1.50;;;;;;;;;;5027400;28;20033;-51
2022/02/19 03:38:56;;;;;;;6.05;1.30;;;;;;;;;;5027837;28;20487;-54
2022/02/19 03:41:21;;;;;;;6.07;1.20;;;;;;;;;;5041224;28;20423;-54
2022/02/19 03:43:46;;;;;;;10.75;1.75;;;;;;;;;;5024755;28;20116;-53
2022/02/19 03:46:12;;;;;;;5.43;0.90;;;;;;;;;;5022569;28;20350;-52
2022/02/19 03:48:38;;;;;;;7.13;1.25;;;;;;;;;;5025050;28;20033;-52
2022/02/19 03:51:05;;;;;;;7.03;1.20;;;;;;;;;;5028438;28;20033;-52
2022/02/19 03:53:31;;;;;;;4.15;0.93;;;;;;;;;;5024126;28;20045;-53
2022/02/19 03:55:57;;;;;;;11.02;1.80;;;;;;;;;;5026380;28;20607;-57
2022/02/19 03:58:22;;;;;;;3.97;1.20;;;;;;;;;;5026882;28;20034;-56
2022/02/19 04:00:48;;;;;;;13.55;1.17;;;;;;;;;;5026787;28;20042;-52
2022/02/19 04:03:14;;;;;;;4.35;1.00;;;;;;;;;;5030757;28;20045;-52
2022/02/19 04:05:39;;;;;;;3.55;0.82;;;;;;;;;;5025002;28;20029;-52
2022/02/19 04:08:06;;;;;;;5.72;1.10;;;;;;;;;;5028479;28;20025;-53
2022/02/19 04:10:32;;;;;;;2.20;1.05;;;;;;;;;;5031820;28;20036;-55
2022/02/19 04:12:58;;;;;;;5.55;0.93;;;;;;;;;;5025235;28;20109;-52
2022/02/19 04:15:23;;;;;;;6.03;1.42;;;;;;;;;;5021094;28;20029;-57
2022/02/19 04:17:49;;;;;;;2.67;0.73;;;;;;;;;;5025933;28;20047;-54
2022/02/19 04:20:15;;;;;;;7.68;1.27;;;;;;;;;;5027437;28;20087;-55
2022/02/19 04:22:41;;;;;;;6.88;1.00;;;;;;;;;;5031255;28;20024;-55
2022/02/19 04:25:09;;;;;;;2.90;0.88;;;;;;;;;;5028970;28;20029;-54
2022/02/19 04:27:34;;;;;;;3.67;0.60;;;;;;;;;;5025575;28;20037;-53
2022/02/19 04:30:00;;;;;;;7.80;0.88;;;;;;;;;;5025252;28;20244;-56
2022/02/19 04:32:25;;;;;;;4.50;0.95;;;;;;;;;;5025042;28;20150;-54
2022/02/19 04:34:51;;;;;;;1.73;0.70;;;;;;;;;;5029205;28;20407;-53
2022/02/19 04:37:16;;;;;;;5.43;0.80;;;;;;;;;;5025313;28;20037;-54
2022/02/19 04:39:42;;;;;;;1.42;0.80;;;;;;;;;;5022632;28;20030;-52
2022/02/19 04:42:08;;;;;;;3.78;0.90;;;;;;;;;;5025910;28;20551;-58
2022/02/19 04:44:34;;;;;;;2.55;0.73;;;;;;;;;;5022059;28;20555;-57
2022/02/19 04:47:00;;;;;;;4.60;1.00;;;;;;;;;;5030556;28;20503;-55
2022/02/19 04:49:25;;;;;;;6.88;1.20;;;;;;;;;;5026591;28;20413;-55
2022/02/19 04:51:51;;;;;;;7.90;0.93;;;;;;;;;;5025821;28;20037;-55
2022/02/19 04:54:16;;;;;;;3.90;0.88;;;;;;;;;;5021896;28;20483;-52
2022/02/19 04:56:42;;;;;;;2.30;0.40;;;;;;;;;;5025566;28;20045;-54
2022/02/19 04:59:08;;;;;;;6.07;0.60;;;;;;;;;;5030896;28;20131;-55
2022/02/19 05:01:33;;;;;;;1.95;0.77;;;;;;;;;;5029576;28;20036;-53
2022/02/19 05:03:59;;;;;;;1.80;0.50;;;;;;;;;;5020534;28;20545;-56
2022/02/19 05:06:24;;;;;;;4.32;0.85;;;;;;;;;;5026017;28;20431;-54
2022/02/19 05:08:50;;;;;;;4.57;0.75;;;;;;;;;;5024061;28;20037;-55
2022/02/19 05:11:15;;;;;;;7.78;0.80;;;;;;;;;;5027892;28;20044;-56
2022/02/19 05:13:41;;;;;;;8.63;1.38;;;;;;;;;;5029831;28;20041;-54
2022/02/19 05:16:06;;;;;;;8.65;1.00;;;;;;;;;;5025925;28;20604;-53
2022/02/19 05:18:32;;;;;;;6.78;0.80;;;;;;;;;;5029332;28;20179;-54
2022/02/19 05:20:57;;;;;;;6.53;0.73;;;;;;;;;;5024301;28;20484;-54
2022/02/19 05:23:23;;;;;;;18.45;0.93;;;;;;;;;;5024298;28;20376;-55
2022/02/19 05:25:49;;;;;;;5.53;0.82;;;;;;;;;;5025673;28;20037;-55
2022/02/19 05:28:15;;;;;;;5.25;1.02;;;;;;;;;;5025052;28;20118;-54
2022/02/19 05:30:41;;;;;;;7.10;0.93;;;;;;;;;;5024297;28;20164;-55
2022/02/19 05:33:06;;;;;;;5.63;0.82;;;;;;;;;;5024635;28;20064;-54
2022/02/19 05:35:32;;;;;;;8.38;1.08;;;;;;;;;;5024550;28;20518;-52
2022/02/19 05:37:58;;;;;;;2.70;0.55;;;;;;;;;;5022106;28;20400;-51
2022/02/19 05:40:23;;;;;;;5.60;0.90;;;;;;;;;;5025029;28;20049;-51
2022/02/19 05:42:49;;;;;;;4.60;0.50;;;;;;;;;;5025006;28;20522;-53
2022/02/19 05:45:14;;;;;;;3.13;0.65;;;;;;;;;;5027944;28;20562;-54
2022/02/19 05:47:40;;;;;;;8.95;1.05;;;;;;;;;;5023781;28;20041;-54
2022/02/19 05:50:06;;;;;;;6.97;0.70;;;;;;;;;;5028145;28;20056;-54
2022/02/19 05:52:31;;;;;;;8.35;1.33;;;;;;;;;;5022143;28;20053;-54
2022/02/19 05:54:57;;;;;;;5.80;0.90;;;;;;;;;;5025740;28;20033;-56
2022/02/19 05:57:23;;;;;;;11.20;0.90;;;;;;;;;;5022598;28;20160;-54
2022/02/19 05:59:49;;;;;;;4.43;1.13;;;;;;;;;;5025734;28;20033;-54
2022/02/19 06:02:16;;;;;;;8.98;1.17;;;;;;;;;;5023479;28;20029;-54
2022/02/19 06:04:42;;;;;;;6.85;0.70;;;;;;;;;;5026940;28;20087;-53
2022/02/19 06:07:07;;;;;;;6.20;0.70;;;;;;;;;;5026036;28;20041;-55
2022/02/19 06:09:33;;;;;;;8.45;0.65;;;;;;;;;;5026548;28;20044;-53
2022/02/19 06:11:58;;;;;;;3.70;0.70;;;;;;;;;;5024692;28;20483;-54
2022/02/19 06:14:25;;;;;;;5.00;0.90;;;;;;;;;;5022954;28;20033;-56
2022/02/19 06:16:50;;;;;;;4.43;0.52;;;;;;;;;;5031182;28;20037;-57
2022/02/19 06:19:17;;;;;;;12.80;1.13;;;;;;;;;;5040874;28;20091;-58
2022/02/19 06:21:42;;;;;;;6.53;0.85;;;;;;;;;;5024098;28;20068;-58
2022/02/19 06:24:08;;;;;;;8.32;0.52;;;;;;;;;;5023704;28;20036;-58
2022/02/19 06:26:34;;;;;;;1.58;0.40;;;;;;;;;;5037429;28;20032;-58
2022/02/19 06:29:00;;;;;;;4.97;0.65;;;;;;;;;;5024971;28;20249;-58
2022/02/19 06:31:26;;;;;;;3.80;0.60;;;;;;;;;;5024299;28;20037;-58
2022/02/19 06:33:52;;;;;;;5.38;0.50;;;;;;;;;;5022932;28;20083;-58
2022/02/19 06:36:19;;;;;;;4.95;0.68;;;;;;;;;;5028755;28;20545;-58
2022/02/19 06:38:46;;;;;;;4.60;0.73;;;;;;;;;;5030931;28;20045;-57
2022/02/19 06:41:12;;;;;;;2.47;0.60;;;;;;;;;;5025590;28;20101;-57
2022/02/19 06:43:37;;;;;;;1.45;0.45;;;;;;;;;;5027480;28;20156;-58
2022/02/19 06:46:03;;;;;;;2.72;0.43;;;;;;;;;;5031173;28;20033;-58
2022/02/19 06:48:29;;;;;;;3.90;0.75;;;;;;;;;;5022989;28;20475;-58
2022/02/19 06:50:56;;;;;;;2.10;0.35;;;;;;;;;;5026820;28;20036;-55
2022/02/19 06:53:22;;;;;;;4.00;0.50;;;;;;;;;;5027534;28;20463;-58
2022/02/19 06:55:47;;;;;;;0.47;0.20;;;;;;;;;;5042104;28;20041;-57
2022/02/19 06:58:13;;;;;;;0.50;0.20;;;;;;;;;;5037296;28;20061;-56
2022/02/19 07:00:38;;;;;;;0.10;0.10;;;;;;;;;;5023963;28;20037;-56
2022/02/19 07:03:04;;;;;;;1.02;0.35;;;;;;;;;;5042597;28;20505;-57
2022/02/19 07:05:29;;;;;;;1.38;0.15;;;;;;;;;;5024975;28;20065;-57
2022/02/19 07:07:55;;;;;;;0.25;0.10;;;;;;;;;;5037555;28;20600;-56
2022/02/19 07:10:20;;;;;;;0.57;0.25;;;;;;;;;;5031459;28;20041;-57
2022/02/19 07:12:46;;;;;;;0.68;0.20;;;;;;;;;;5028916;28;20051;-57
2022/02/19 07:15:12;;;;;;;2.38;0.20;;;;;;;;;;5029353;28;20121;-56
2022/02/19 07:17:52;;;;;;;0.40;0.10;;;;;;;;;;5032915;28;20403;-57
2022/02/19 07:20:22;;;;;;;1.55;0.30;;;;;;;;;;5025493;28;20029;-56
2022/02/19 07:22:49;;;;;;;1.48;0.28;;;;;;;;;;5025306;28;20032;-57
2022/02/19 07:25:15;;;;;;;0.80;0.20;;;;;;;;;;5028827;28;20021;-56
2022/02/19 07:27:43;;;;;;;1.40;0.30;;;;;;;;;;5024753;28;20056;-57
2022/02/19 07:30:12;;;;;;;1.60;0.30;;;;;;;;;;5026262;28;20062;-56
2022/02/19 07:32:37;;;;;;;3.55;0.50;;;;;;;;;;5025098;28;20030;-57
2022/02/19 07:35:04;;;;;;;0.35;0.25;;;;;;;;;;5025432;28;20037;-57
2022/02/19 07:37:29;;;;;;;2.97;0.60;;;;;;;;;;5030172;28;20025;-52
2022/02/19 07:39:55;;;;;;;2.78;0.50;;;;;;;;;;5026069;28;20619;-53
2022/02/19 07:42:20;;;;;;;1.40;0.68;;;;;;;;;;5026263;28;20033;-57
2022/02/19 07:44:46;;;;;;;1.98;0.50;;;;;;;;;;5025865;28;20044;-55
2022/02/19 07:47:11;;;;;;;5.72;0.40;;;;;;;;;;5024998;28;20037;-53
2022/02/19 08:00:35;;;;;;;0.82;0.30;;;;;;;;;;5026287;28;20040;-56
2022/02/19 08:03:00;;;;;;;6.20;1.00;;;;;;;;;;5024038;28;20482;-56
2022/02/19 08:05:26;;;;;;;2.40;0.50;;;;;;;;;;5023984;28;20063;-56
2022/02/19 08:07:51;;;;;;;1.38;0.52;;;;;;;;;;5015483;28;20087;-53
2022/02/19 08:10:17;;;;;;;0.50;0.50;;;;;;;;;;5027372;28;20029;-54
2022/02/19 08:12:42;;;;;;;2.28;1.20;;;;;;;;;;5027189;28;20349;-54
2022/02/19 08:15:08;;;;;;;0.55;0.43;;;;;;;;;;5023108;28;21606;-56
2022/02/19 08:17:33;;;;;;;2.90;0.70;;;;;;;;;;5031815;28;20172;-53
2022/02/19 08:19:59;;;;;;;2.15;0.50;;;;;;;;;;5024885;28;20033;-51
2022/02/19 08:22:24;;;;;;;2.78;0.50;;;;;;;;;;5027311;28;20055;-53
2022/02/19 08:24:50;;;;;;;2.17;0.70;;;;;;;;;;5029292;28;20041;-56
2022/02/19 08:27:15;;;;;;;4.40;0.65;;;;;;;;;;5026698;28;20480;-55
2022/02/19 08:29:41;;;;;;;3.08;0.45;;;;;;;;;;5026939;28;20033;-55
2022/02/19 08:32:07;;;;;;;1.92;0.40;;;;;;;;;;5024431;28;20075;-57
2022/02/19 08:34:33;;;;;;;7.72;0.52;;;;;;;;;;5020090;28;20013;-56
2022/02/19 08:36:58;;;;;;;3.30;0.40;;;;;;;;;;5023957;28;20441;-56
2022/02/19 08:39:24;;;;;;;1.83;0.75;;;;;;;;;;5023714;28;20029;-56
2022/02/19 08:41:50;;;;;;;7.20;1.15;;;;;;;;;;5026779;28;20037;-57
2022/02/19 08:44:15;;;;;;;2.17;0.93;;;;;;;;;;5028030;28;20718;-57
2022/02/19 08:46:41;;;;;;;2.35;0.80;;;;;;;;;;5023915;28;20037;-55
2022/02/19 08:49:06;;;;;;;1.13;0.63;;;;;;;;;;5023519;28;20029;-55
2022/02/19 08:51:32;;;;;;;7.55;1.02;;;;;;;;;;5027894;28;20048;-50
2022/02/19 08:53:57;;;;;;;5.70;0.68;;;;;;;;;;5023286;28;20038;-54
2022/02/19 08:56:23;;;;;;;3.53;0.80;;;;;;;;;;5029083;28;20039;-53
2022/02/19 08:58:48;;;;;;;8.98;0.90;;;;;;;;;;5021525;28;20043;-55
2022/02/19 09:01:14;;;;;;;5.20;0.77;;;;;;;;;;5019567;28;20083;-54
2022/02/19 09:03:39;;;;;;;9.38;1.70;;;;;;;;;;5022370;28;20076;-55
2022/02/19 09:06:05;;;;;;;6.07;1.10;;;;;;;;;;5021081;28;20360;-51
2022/02/19 09:08:30;;;;;;;8.20;1.20;;;;;;;;;;5024252;28;20447;-54
2022/02/19 09:10:56;;;;;;;6.82;0.90;;;;;;;;;;5019630;28;20091;-54
2022/02/19 09:13:21;;;;;;;16.95;1.10;;;;;;;;;;5023127;28;20044;-53
2022/02/19 09:15:49;;;;;;;12.35;1.60;;;;;;;;;;5025543;28;20602;-55
2022/02/19 09:18:15;;;;;;;13.85;1.65;;;;;;;;;;5020746;28;20063;-51
2022/02/19 09:20:41;;;;;;;8.93;1.30;;;;;;;;;;5038113;28;20811;-51
2022/02/19 09:23:06;;;;;;;22.98;1.92;;;;;;;;;;5020951;28;20025;-51
2022/02/19 09:25:32;;;;;;;8.05;2.92;;;;;;;;;;5022725;28;20495;-50
2022/02/19 09:27:57;;;;;;;14.38;1.92;;;;;;;;;;5021838;28;20021;-51
2022/02/19 09:30:23;;;;;;;11.40;1.45;;;;;;;;;;5019552;28;20036;-49
2022/02/19 09:32:49;;;;;;;10.35;1.63;;;;;;;;;;5024665;28;20132;-54
2022/02/19 09:35:16;;;;;;;11.95;1.30;;;;;;;;;;5023834;28;20120;-54
2022/02/19 09:37:42;;;;;;;13.77;2.05;;;;;;;;;;5026080;28;20068;-52
2022/02/19 09:40:10;;;;;;;29.55;2.83;;;;;;;;;;5020507;28;20032;-55
2022/02/19 09:42:39;;;;;;;25.80;2.67;;;;;;;;;;5025232;28;20576;-54
2022/02/19 09:45:07;;;;;;;20.33;2.17;;;;;;;;;;5020069;28;20298;-51
2022/02/19 09:47:34;;;;;;;24.73;2.78;;;;;;;;;;5023625;28;20037;-54
2022/02/19 09:50:00;;;;;;;20.58;2.22;;;;;;;;;;5024180;28;20475;-56
2022/02/19 09:52:26;;;;;;;16.25;3.05;;;;;;;;;;5023204;28;20056;-53
2022/02/19 09:54:56;;;;;;;17.95;1.55;;;;;;;;;;5013958;28;20041;-54
2022/02/19 09:57:22;;;;;;;15.65;1.63;;;;;;;;;;5022940;28;20037;-53
2022/02/19 09:59:48;;;;;;;13.50;2.08;;;;;;;;;;5026516;28;20067;-54
2022/02/19 10:02:14;;;;;;;27.77;3.03;;;;;;;;;;5025433;28;20029;-53
2022/02/19 10:04:44;;;;;;;22.92;2.83;;;;;;;;;;5021812;28;20373;-53
2022/02/19 10:07:17;;;;;;;17.25;2.67;;;;;;;;;;5025609;28;20275;-53
2022/02/19 10:09:49;;;;;;;26.58;2.72;;;;;;;;;;5027375;28;20029;-51
2022/02/19 10:12:16;;;;;;;30.20;3.70;;;;;;;;;;5032886;28;20275;-52
2022/02/19 10:14:43;;;;;;;15.07;2.42;;;;;;;;;;5027597;28;20369;-53
2022/02/19 10:17:15;;;;;;;34.50;2.65;;;;;;;;;;5029230;28;20033;-49
2022/02/19 10:20:01;;;;;;;23.10;3.13;;;;;;;;;;5030083;28;20053;-50
2022/02/19 10:22:29;;;;;;;22.77;3.03;;;;;;;;;;5028007;28;20045;-49
2022/02/19 10:25:04;;;;;;;29.23;4.18;;;;;;;;;;5028927;28;20030;-56
2022/02/19 10:27:45;;;;;;;20.63;3.33;;;;;;;;;;5030540;28;20025;-50
2022/02/19 10:30:18;;;;;;;35.90;3.63;;;;;;;;;;5029364;28;20487;-56
2022/02/19 10:33:02;;;;;;;30.67;4.40;;;;;;;;;;5032367;28;20025;-54
2022/02/19 10:35:37;;;;;;;24.05;3.42;;;;;;;;;;5021194;28;20033;-54
2022/02/19 10:38:07;;;;;;;21.13;3.33;;;;;;;;;;5023696;28;20401;-54
2022/02/19 10:40:39;;;;;;;15.88;3.70;;;;;;;;;;5029046;28;20159;-56
2022/02/19 10:43:07;;;;;;;48.15;3.58;;;;;;;;;;5029587;28;20028;-52
2022/02/19 10:45:37;;;;;;;47.90;3.15;;;;;;;;;;5030344;28;20043;-54
2022/02/19 10:48:15;;;;;;;25.20;2.97;;;;;;;;;;5024909;28;20405;-56
2022/02/19 10:50:47;;;;;;;20.15;2.15;;;;;;;;;;5028416;28;20056;-53
2022/02/19 10:53:31;;;;;;;19.85;3.08;;;;;;;;;;5028230;28;20042;-52
2022/02/19 10:55:57;;;;;;;15.38;3.20;;;;;;;;;;5028557;28;20045;-54
2022/02/19 10:58:23;;;;;;;20.50;2.55;;;;;;;;;;5029032;28;20581;-56
2022/02/19 11:00:48;;;;;;;18.60;2.45;;;;;;;;;;5028597;28;20423;-53
2022/02/19 11:03:16;;;;;;;21.55;2.25;;;;;;;;;;5027002;28;20040;-53
2022/02/19 11:05:42;;;;;;;21.20;2.65;;;;;;;;;;5034507;28;20037;-54
2022/02/19 11:08:08;;;;;;;13.02;2.90;;;;;;;;;;5028840;28;20039;-54
2022/02/19 11:10:34;;;;;;;9.65;1.58;;;;;;;;;;5027277;28;20025;-54
2022/02/19 11:13:01;;;;;;;8.88;1.85;;;;;;;;;;5030411;28;20052;-50
2022/02/19 11:15:27;;;;;;;8.75;1.40;;;;;;;;;;5028158;28;20052;-51
2022/02/19 11:17:53;;;;;;;3.92;1.58;;;;;;;;;;5029416;28;20495;-53
2022/02/19 11:20:22;;;;;;;10.43;1.15;;;;;;;;;;5022985;28;20029;-53
2022/02/19 11:22:48;;;;;;;4.32;1.33;;;;;;;;;;5022217;28;20107;-49
2022/02/19 11:25:17;;;;;;;3.40;1.08;;;;;;;;;;5030334;28;20075;-55
2022/02/19 11:27:59;;;;;;;7.72;0.95;;;;;;;;;;5032916;28;20407;-51
2022/02/19 11:30:26;;;;;;;3.17;0.90;;;;;;;;;;5029402;28;20056;-52
2022/02/19 12:31:21;;;;;;;8.10;2.13;;;;;;;;;;5072213;27;1376237;-49
2022/02/19 12:33:49;;;;;;;5.65;2.35;;;;;;;;;;5117337;27;20494;-54
2022/02/19 12:36:15;;;;;;;8.13;2.67;;;;;;;;;;5112918;27;20390;-53
2022/02/19 12:38:47;;;;;;;5.45;2.05;;;;;;;;;;5102479;27;20035;-49
2022/02/19 12:41:12;;;;;;;6.80;2.20;;;;;;;;;;5086482;28;20077;-49
2022/02/19 12:43:38;;;;;;;3.88;2.33;;;;;;;;;;5092543;28;20602;-52
2022/02/19 12:46:03;;;;;;;6.25;1.70;;;;;;;;;;5091037;28;20024;-53
2022/02/19 12:48:30;;;;;;;3.85;1.92;;;;;;;;;;5088849;28;20051;-52
2022/02/19 12:50:58;;;;;;;5.38;2.30;;;;;;;;;;5087799;28;20523;-52
2022/02/19 12:53:24;;;;;;;2.65;1.63;;;;;;;;;;5089189;28;20086;-52
2022/02/19 12:55:56;;;;;;;10.00;2.85;;;;;;;;;;5092131;28;20028;-54
2022/02/19 12:58:24;;;;;;;;;;;;;;;;;;5091004;28;20196;-54
2022/02/19 13:00:56;;;;;;;3.78;1.77;;;;;;;;;;5088512;28;19912;-52
2022/02/19 13:03:22;;;;;;;4.07;2.38;;;;;;;;;;5088993;28;20506;-52
2022/02/19 13:05:55;;;;;;;7.47;2.95;;;;;;;;;;5088548;28;20066;-51
2022/02/19 13:08:21;;;;;;;5.65;2.53;;;;;;;;;;5091110;28;20036;-52
2022/02/19 13:10:49;;;;;;;4.82;2.40;;;;;;;;;;5088343;28;20032;-49
2022/02/19 13:13:16;;;;;;;5.22;2.13;;;;;;;;;;5090167;28;20126;-50
2022/02/19 13:15:45;;;;;;;6.13;2.35;;;;;;;;;;5059626;27;20124;-49
2022/02/19 13:18:10;;;;;;;3.28;1.77;;;;;;;;;;5028593;28;20033;-49
2022/02/19 13:20:36;;;;;;;6.10;1.98;;;;;;;;;;5031732;28;20041;-49
2022/02/19 13:23:01;;;;;;;3.17;2.03;;;;;;;;;;5029567;28;20079;-49
2022/02/19 13:25:27;;;;;;;4.35;2.42;;;;;;;;;;5032175;28;20039;-49
2022/02/19 13:27:53;;;;;;;5.18;2.70;;;;;;;;;;5032437;28;20476;-48
2022/02/19 13:30:19;;;;;;;6.00;2.45;;;;;;;;;;5029456;28;20076;-51
2022/02/19 13:32:47;;;;;;;4.95;2.15;;;;;;;;;;5030033;28;20393;-50
2022/02/19 13:35:27;;;;;;;6.93;2.97;;;;;;;;;;5032201;28;20163;-49
2022/02/19 13:37:58;;;;;;;3.47;2.10;;;;;;;;;;5034153;28;20025;-50
2022/02/19 13:40:32;;;;;;;4.13;2.17;;;;;;;;;;5030615;28;20029;-48
2022/02/19 13:43:09;;;;;;;5.85;2.63;;;;;;;;;;5020284;28;20032;-49
2022/02/19 13:45:41;;;;;;;4.93;2.42;;;;;;;;;;5019686;28;20025;-50
2022/02/19 13:48:08;;;;;;;3.25;1.80;;;;;;;;;;5023374;28;20056;-50
2022/02/19 13:50:35;;;;;;;4.95;2.30;;;;;;;;;;5019346;28;20038;-49
2022/02/19 13:53:05;;;;;;;7.43;3.22;;;;;;;;;;5023458;28;20163;-53
2022/02/19 13:55:32;;;;;;;1.73;1.60;;;;;;;;;;5025076;28;20515;-55
2022/02/19 13:58:10;;;;;;;3.50;2.03;;;;;;;;;;5018782;28;20460;-56
2022/02/19 14:00:36;;;;;;;2.40;1.52;;;;;;;;;;5023448;28;20553;-55
2022/02/19 14:03:03;;;;;;;2.58;1.65;;;;;;;;;;5021346;28;20068;-52
2022/02/19 14:05:43;;;;;;;1.20;1.08;;;;;;;;;;5021445;28;20087;-51
2022/02/19 14:08:12;;;;;;;2.35;1.65;;;;;;;;;;5017704;28;20038;-51
2022/02/19 14:11:00;;;;;;;2.15;1.48;;;;;;;;;;5016425;28;20211;-48
2022/02/19 14:13:27;;;;;;;2.35;1.88;;;;;;;;;;5021302;28;20030;-50
2022/02/19 14:15:53;;;;;;;3.47;2.10;;;;;;;;;;5017081;28;20484;-50
2022/02/19 14:18:20;;;;;;;3.15;1.88;;;;;;;;;;5022994;28;20463;-54
2022/02/19 14:20:47;;;;;;;4.03;1.90;;;;;;;;;;5023229;28;20151;-54
2022/02/19 14:23:21;;;;;;;2.80;1.80;;;;;;;;;;5018030;28;20030;-51
2022/02/19 14:25:56;;;;;;;4.70;2.30;;;;;;;;;;5017031;28;20033;-51
2022/02/19 14:28:28;;;;;;;3.03;2.05;;;;;;;;;;5020873;28;20030;-51
2022/02/19 14:30:56;;;;;;;;;;;;;;;;;;5017151;28;20560;-49
2022/02/19 14:33:22;;;;;;;1.90;0.98;;;;;;;;;;5020316;28;19925;-49
2022/02/19 14:35:49;;;;;;;1.33;1.20;;;;;;;;;;5020672;28;20033;-48
2022/02/19 14:38:21;;;;;;;1.63;1.25;;;;;;;;;;5015951;28;20098;-54
2022/02/19 14:40:52;;;;;;;3.13;1.48;;;;;;;;;;5024102;28;20037;-51
2022/02/19 14:43:18;;;;;;;1.38;0.90;;;;;;;;;;5014670;28;20675;-51
2022/02/19 14:45:46;;;;;;;2.50;1.08;;;;;;;;;;5015272;28;20065;-52
2022/02/19 14:48:12;;;;;;;3.63;1.80;;;;;;;;;;5013508;28;20131;-49
2022/02/19 14:50:38;;;;;;;2.25;1.23;;;;;;;;;;5019134;28;20935;-52
2022/02/19 14:53:04;;;;;;;2.10;1.35;;;;;;;;;;5016283;28;20091;-56
2022/02/19 14:55:30;;;;;;;3.28;1.67;;;;;;;;;;5019660;28;20033;-54
2022/02/19 14:57:56;;;;;;;1.88;1.20;;;;;;;;;;5017554;28;20072;-53
2022/02/19 15:00:22;;;;;;;5.30;1.70;;;;;;;;;;5019294;28;20120;-52
2022/02/19 15:02:47;;;;;;;2.08;1.27;;;;;;;;;;5021772;28;20039;-52
2022/02/19 15:05:13;;;;;;;5.30;1.52;;;;;;;;;;5016656;28;20437;-49
2022/02/19 15:07:38;;;;;;;5.03;1.50;;;;;;;;;;5019511;28;20041;-52
2022/02/19 15:10:04;;;;;;;4.10;1.80;;;;;;;;;;5012665;28;20179;-53
2022/02/19 15:12:30;;;;;;;5.03;1.80;;;;;;;;;;5017230;28;20045;-52
2022/02/19 15:14:55;;;;;;;3.03;1.75;;;;;;;;;;5022019;28;20783;-53
2022/02/19 15:17:21;;;;;;;3.47;2.00;;;;;;;;;;5018664;28;20568;-52
2022/02/19 15:19:46;;;;;;;5.13;1.67;;;;;;;;;;5014684;28;20048;-50
2022/02/19 15:22:12;;;;;;;4.22;1.45;;;;;;;;;;5016776;28;20144;-49
2022/02/19 15:24:40;;;;;;;4.20;1.33;;;;;;;;;;5017934;28;20040;-51
2022/02/19 15:27:06;;;;;;;5.15;1.75;;;;;;;;;;5007050;28;20038;-53
2022/02/19 15:29:32;;;;;;;1.85;1.33;;;;;;;;;;5018795;28;20536;-50
2022/02/19 15:31:58;;;;;;;3.40;1.45;;;;;;;;;;5014607;28;20083;-49
2022/02/19 15:34:24;;;;;;;3.33;1.50;;;;;;;;;;5019077;28;20480;-49
2022/02/19 15:36:50;;;;;;;4.28;1.80;;;;;;;;;;5016952;28;20103;-49
2022/02/19 15:39:15;;;;;;;3.35;1.90;;;;;;;;;;5016803;28;20034;-50
2022/02/19 15:41:41;;;;;;;7.28;2.45;;;;;;;;;;5020164;28;20401;-50
2022/02/19 15:44:07;;;;;;;4.65;1.98;;;;;;;;;;5024209;28;20515;-51
2022/02/19 15:46:33;;;;;;;5.65;2.13;;;;;;;;;;5018013;28;20044;-51
2022/02/19 15:48:59;;;;;;;15.00;3.20;;;;;;;;;;5019351;28;20037;-53